Impacts METAR Board
IDs:

KMDW - Chicago/Midway Intl, IL, US

Updated at: 1500 UTC 16 Feb 2019
Potential Impact None Slight Moderate High
Time 16/03Z 16/04Z 16/05Z 16/06Z 16/07Z 16/08Z 16/09Z 16/10Z 16/11Z 16/12Z 16/13Z 16/14Z 16/15Z
Temp18 18 17 18 18 18 18 18 19 19 19 20 22
Dewpt7 6 5 6 6 6 7 7 8 9 10 11 13
Altim30.05 30.07 30.07 30.08 30.09 30.09 30.09 30.09 30.09 30.09 30.10 30.11 30.10
VIS10 10 10 10 10 10 10 10 10 10 10 10 10
CIG250 250 23 21 21 22 24 25 26 26 26 25 24
CoverBKNBKNBKNBKNOVCOVCOVCOVCOVCOVCBKNBKNOVC
FltCatVFRVFRMVFRMVFRMVFRMVFRMVFRMVFRMVFRMVFRMVFRMVFRMVFR
WX--------------------------
WDir330330330320330300310310320330320340350
WSpd8 8 8 5 8 7 6 5 7 5 5 5 7
WGst-- -- -- -- -- -- -- -- -- -- -- -- --
Raw hourly METARs
KMDW 160253Z 33008KT 10SM BKN250 M08/M14 A3005 RMK AO2 SLP195 T10781139 51021 $
KMDW 160353Z 33008KT 10SM FEW021 BKN250 M08/M14 A3007 RMK AO2 SLP203 T10781144 $
KMDW 160453Z 33008KT 10SM BKN023 BKN250 M08/M15 A3007 RMK AO2 SLP203 T10831150 $
KMDW 160553Z 32005KT 10SM BKN021 BKN250 M08/M14 A3008 RMK AO2 SLP203 T10781144 11067 21083 400061117 51009 $
KMDW 160653Z 33008KT 10SM OVC021 M08/M14 A3009 RMK AO2 SLP208 T10781144 $
KMDW 160753Z 30007KT 10SM OVC022 M08/M14 A3009 RMK AO2 SLP207 T10781144 $
KMDW 160853Z 31006KT 10SM OVC024 M08/M14 A3009 RMK AO2 SLP207 T10781139 51005 $
KMDW 160953Z 31005KT 10SM OVC025 M08/M14 A3009 RMK AO2 SLP208 T10781139 $
KMDW 161053Z 32007KT 10SM OVC026 M07/M13 A3009 RMK AO2 SLP208 T10721133 $
KMDW 161153Z 33005KT 10SM OVC026 M07/M13 A3009 RMK AO2 SLP208 T10721128 11072 21078 50000 $
KMDW 161253Z 32005KT 10SM BKN026 M07/M12 A3010 RMK AO2 SLP213 T10721122 $
KMDW 161353Z 34005KT 10SM BKN025 M07/M12 A3011 RMK AO2 SLP212 T10671117 $
KMDW 161453Z 35007KT 10SM OVC024 M06/M11 A3010 RMK AO2 SLP212 T10561106 50004 $



Page loaded:  15:14 UTC  |   07:14 AM Pacific  |   08:14 AM Mountain  |   09:14 AM Central  |   10:14 AM Eastern

 

ADVISORIES

FORECASTS

FORECASTS

OBSERVATIONS

USER TOOLS

ABOUT US